createdAt,value
2023-07-02T00:01:17.923Z,25.08
2023-07-02T00:06:14.636Z,25.20
2023-07-02T00:11:13.082Z,25.34
2023-07-02T00:16:12.774Z,25.50
2023-07-02T00:21:13.834Z,25.43
2023-07-02T00:26:12.319Z,24.89
2023-07-02T00:31:10.208Z,24.89
2023-07-02T00:36:07.156Z,24.96
2023-07-02T00:41:03.820Z,25.10
2023-07-02T00:46:00.616Z,24.99
2023-07-02T00:50:58.181Z,25.02
2023-07-02T00:55:54.796Z,24.99
2023-07-02T01:00:51.689Z,25.23
2023-07-02T01:05:48.664Z,25.28
2023-07-02T01:10:46.336Z,25.26
2023-07-02T01:15:43.627Z,25.37
2023-07-02T01:20:41.866Z,25.32
2023-07-02T01:25:38.825Z,25.35
2023-07-02T01:30:36.231Z,25.67
2023-07-02T01:35:33.704Z,25.50
2023-07-02T01:40:31.276Z,25.62
2023-07-02T01:45:28.055Z,26.02
2023-07-02T01:50:25.136Z,26.24
2023-07-02T01:55:23.164Z,26.39
2023-07-02T02:00:20.745Z,26.27
2023-07-02T02:05:17.426Z,26.36
2023-07-02T02:10:15.364Z,26.55
2023-07-02T02:15:14.349Z,26.35
2023-07-02T02:20:12.340Z,26.15
2023-07-02T02:25:12.309Z,26.08
2023-07-02T02:30:09.380Z,26.29
2023-07-02T02:35:07.221Z,26.21
2023-07-02T02:40:06.357Z,26.07
2023-07-02T02:45:03.472Z,26.00
2023-07-02T02:50:00.297Z,26.22
2023-07-02T02:54:57.086Z,26.29
2023-07-02T02:59:54.662Z,26.22
2023-07-02T03:04:51.815Z,26.23
2023-07-02T03:09:48.747Z,26.26
2023-07-02T03:14:45.622Z,25.95
2023-07-02T03:19:43.028Z,26.27
2023-07-02T03:24:40.799Z,26.11
2023-07-02T03:29:40.846Z,25.72
2023-07-02T03:34:37.689Z,25.37
2023-07-02T03:39:35.070Z,25.26
2023-07-02T03:44:31.931Z,24.95
2023-07-02T03:49:29.809Z,24.90
2023-07-02T03:54:26.715Z,25.11
2023-07-02T03:59:24.178Z,25.14
2023-07-02T04:04:21.124Z,25.20
2023-07-02T04:09:18.957Z,25.24
2023-07-02T04:14:15.818Z,24.94
2023-07-02T04:19:13.584Z,24.98
2023-07-02T04:24:10.429Z,24.90
2023-07-02T04:29:07.681Z,25.18
2023-07-02T04:34:05.490Z,25.21
2023-07-02T04:39:02.963Z,25.33
2023-07-02T04:43:59.798Z,25.65
2023-07-02T04:48:56.466Z,25.41
2023-07-02T04:53:53.399Z,24.92
2023-07-02T04:58:50.842Z,25.34
2023-07-02T05:03:49.611Z,25.38
2023-07-02T05:08:46.373Z,25.53
2023-07-02T05:13:43.142Z,25.53
2023-07-02T05:18:40.584Z,25.51
2023-07-02T05:23:37.315Z,25.79
2023-07-02T05:28:34.045Z,25.37
2023-07-02T05:33:33.007Z,25.46
2023-07-02T05:38:30.465Z,25.64
2023-07-02T05:43:27.106Z,25.80
2023-07-02T05:48:24.006Z,25.81
2023-07-02T05:53:21.118Z,26.03
2023-07-02T05:58:18.515Z,25.93
2023-07-02T06:03:19.773Z,26.13
2023-07-02T06:08:16.571Z,26.05
2023-07-02T06:13:13.471Z,25.93
2023-07-02T06:18:11.020Z,26.11
2023-07-02T06:23:07.873Z,26.21
2023-07-02T06:28:04.884Z,26.32
2023-07-02T06:33:01.868Z,26.38
2023-07-02T06:37:59.449Z,26.58
2023-07-02T06:42:59.180Z,26.54
2023-07-02T06:47:56.114Z,26.54
2023-07-02T06:52:53.049Z,26.57
2023-07-02T06:57:50.417Z,26.44
2023-07-02T07:02:47.414Z,26.58
2023-07-02T07:07:44.229Z,26.48
2023-07-02T07:12:41.049Z,26.39
2023-07-02T07:17:38.605Z,26.58
2023-07-02T07:22:35.386Z,26.76
2023-07-02T07:27:32.147Z,26.78
2023-07-02T07:32:29.011Z,26.78
2023-07-02T07:37:26.642Z,27.04
2023-07-02T07:42:26.182Z,27.03
2023-07-02T07:47:22.814Z,27.29
2023-07-02T07:52:19.696Z,27.18
2023-07-02T07:57:17.205Z,27.21
2023-07-02T08:02:14.055Z,27.22
2023-07-02T08:07:15.201Z,27.35
2023-07-02T08:12:11.816Z,27.41
2023-07-02T08:17:09.315Z,27.14
2023-07-02T08:22:06.417Z,27.10
2023-07-02T08:27:03.392Z,27.21
2023-07-02T08:32:00.228Z,27.31
2023-07-02T08:36:57.725Z,27.33
2023-07-02T08:41:54.517Z,27.24
2023-07-02T08:46:53.679Z,27.15
2023-07-02T08:51:51.637Z,27.10
2023-07-02T08:56:50.735Z,27.23
2023-07-02T09:01:49.945Z,27.22
2023-07-02T09:06:47.077Z,27.33
2023-07-02T09:11:52.600Z,27.13
2023-07-02T09:16:49.449Z,26.87
2023-07-02T09:21:47.179Z,26.77
2023-07-02T09:26:44.876Z,26.56
2023-07-02T09:32:07.302Z,26.54
2023-07-02T09:37:05.799Z,26.38
2023-07-02T09:42:03.930Z,26.35
2023-07-02T09:47:03.776Z,26.18
2023-07-02T09:52:01.472Z,26.41
2023-07-02T09:57:01.947Z,26.43
2023-07-02T10:01:59.136Z,26.41
2023-07-02T10:06:57.194Z,26.34
2023-07-02T10:11:54.056Z,26.36
2023-07-02T10:16:51.869Z,26.44
2023-07-02T10:22:01.197Z,26.48
2023-07-02T10:27:00.202Z,26.76
2023-07-02T10:31:58.181Z,26.86
2023-07-02T10:36:55.261Z,26.81
2023-07-02T10:41:52.239Z,26.95
2023-07-02T10:46:52.017Z,27.21
2023-07-02T10:51:57.714Z,27.18
2023-07-02T10:56:57.646Z,27.18
2023-07-02T11:01:56.467Z,27.29
2023-07-02T11:06:53.325Z,27.28
2023-07-02T11:11:51.239Z,27.38
2023-07-02T11:16:54.758Z,27.71
2023-07-02T11:21:52.786Z,27.81
2023-07-02T11:26:49.543Z,28.03
2023-07-02T11:31:46.467Z,27.89
2023-07-02T11:36:43.271Z,28.02
2023-07-02T11:41:41.248Z,28.11
2023-07-02T11:46:37.921Z,28.10
2023-07-02T11:51:36.154Z,28.02
2023-07-02T11:56:33.013Z,28.13
2023-07-02T12:01:30.478Z,28.03
2023-07-02T12:06:27.435Z,28.05
2023-07-02T12:11:24.145Z,28.49
2023-07-02T12:16:20.942Z,28.61
2023-07-02T12:21:19.077Z,28.65
2023-07-02T12:26:15.849Z,28.72
2023-07-02T12:31:13.485Z,29.06
2023-07-02T12:36:10.732Z,29.22
2023-07-02T12:41:08.095Z,29.47
2023-07-02T12:46:05.153Z,29.51
2023-07-02T12:51:01.971Z,29.66
2023-07-02T12:55:58.598Z,29.81
2023-07-02T13:00:56.022Z,29.69
2023-07-02T13:05:55.878Z,29.76
2023-07-02T13:10:55.214Z,29.96
2023-07-02T13:15:52.196Z,29.99
2023-07-02T13:20:49.702Z,30.12
2023-07-02T13:25:46.729Z,30.46
2023-07-02T13:30:43.821Z,30.49
2023-07-02T13:35:40.520Z,30.60
2023-07-02T13:40:37.891Z,30.58
2023-07-02T13:45:34.634Z,30.69
2023-07-02T13:50:31.526Z,30.61
2023-07-02T13:55:31.421Z,30.79
2023-07-02T14:00:29.215Z,30.46
2023-07-02T14:05:25.973Z,30.65
2023-07-02T14:10:22.942Z,30.41
2023-07-02T14:15:19.896Z,30.65
2023-07-02T14:20:17.332Z,30.59
2023-07-02T14:25:15.446Z,30.63
2023-07-02T14:30:15.015Z,30.68
2023-07-02T14:35:11.796Z,30.33
2023-07-02T14:40:10.002Z,30.35
2023-07-02T14:45:07.794Z,30.16
2023-07-02T14:50:04.868Z,30.19
2023-07-02T14:55:01.841Z,30.04
2023-07-02T14:59:59.246Z,30.19
2023-07-02T15:04:56.069Z,30.33
2023-07-02T15:09:52.983Z,30.39
2023-07-02T15:14:49.774Z,30.60
2023-07-02T15:19:47.168Z,30.43
2023-07-02T15:24:43.948Z,30.29
2023-07-02T15:29:40.636Z,30.54
2023-07-02T15:34:37.364Z,30.21
2023-07-02T15:39:35.366Z,29.98
2023-07-02T15:44:32.357Z,30.03
2023-07-02T15:49:29.237Z,29.92
2023-07-02T15:54:27.525Z,29.90
2023-07-02T15:59:25.178Z,29.96
2023-07-02T16:04:24.045Z,30.13
2023-07-02T16:09:21.920Z,30.18
2023-07-02T16:14:24.163Z,29.92
2023-07-02T16:19:24.148Z,29.95
2023-07-02T16:24:23.830Z,30.08
2023-07-02T16:29:20.628Z,29.95
2023-07-02T16:34:17.314Z,30.08
2023-07-02T16:39:18.227Z,30.20
2023-07-02T16:44:18.627Z,30.28
2023-07-02T16:49:16.166Z,29.99
2023-07-02T16:54:15.776Z,30.04
2023-07-02T16:59:16.596Z,29.92
2023-07-02T17:04:16.538Z,29.86
2023-07-02T17:09:17.605Z,30.03
2023-07-02T17:14:21.356Z,30.01
2023-07-02T17:19:19.657Z,29.94
2023-07-02T17:24:16.374Z,29.97
2023-07-02T17:29:17.816Z,29.83
2023-07-02T17:34:17.488Z,29.73
2023-07-02T17:39:15.350Z,29.53
2023-07-02T17:44:12.365Z,29.54
2023-07-02T17:49:12.922Z,29.52
2023-07-02T17:54:09.724Z,29.61
2023-07-02T17:59:08.382Z,29.41
2023-07-02T18:04:05.288Z,29.33
2023-07-02T18:09:14.055Z,29.20
2023-07-02T18:14:24.541Z,29.24
2023-07-02T18:19:24.693Z,29.14
2023-07-02T18:24:23.530Z,29.14
2023-07-02T18:29:20.832Z,29.13
2023-07-02T18:34:17.902Z,29.07
2023-07-02T18:39:14.722Z,29.02
2023-07-02T18:44:12.357Z,28.93
2023-07-02T18:49:09.146Z,28.99
2023-07-02T18:54:08.239Z,28.83
2023-07-02T18:59:05.039Z,28.85
2023-07-02T19:04:06.525Z,28.86
2023-07-02T19:09:06.042Z,28.79
2023-07-02T19:14:04.016Z,28.70
2023-07-02T19:19:00.910Z,28.57
2023-07-02T19:23:59.393Z,28.59
2023-07-02T19:28:56.477Z,28.51
2023-07-02T19:33:53.492Z,28.37
2023-07-02T19:38:50.274Z,28.17
2023-07-02T19:43:49.352Z,28.04
2023-07-02T19:48:46.060Z,27.96
2023-07-02T19:53:43.281Z,27.96
2023-07-02T19:58:40.972Z,27.75
2023-07-02T20:03:39.076Z,27.45
2023-07-02T20:08:35.910Z,27.41
2023-07-02T20:13:32.778Z,27.33
2023-07-02T20:18:29.495Z,27.35
2023-07-02T20:23:27.678Z,27.13
2023-07-02T20:28:24.728Z,27.28
2023-07-02T20:33:21.555Z,27.08
2023-07-02T20:38:18.185Z,26.88
2023-07-02T20:43:15.861Z,26.68
2023-07-02T20:48:13.618Z,26.85
2023-07-02T20:53:10.490Z,26.66
2023-07-02T20:58:07.098Z,26.66
2023-07-02T21:03:05.897Z,26.72
2023-07-02T21:08:02.657Z,26.51
2023-07-02T21:13:01.590Z,26.38
2023-07-02T21:18:01.675Z,26.27
2023-07-02T21:22:59.099Z,26.18
2023-07-02T21:27:55.882Z,26.22
2023-07-02T21:32:52.749Z,26.22
2023-07-02T21:37:49.864Z,26.19
2023-07-02T21:42:47.239Z,25.91
2023-07-02T21:47:47.295Z,26.03
2023-07-02T21:52:44.119Z,25.80
2023-07-02T21:57:40.898Z,25.63
2023-07-02T22:02:38.544Z,25.58
2023-07-02T22:07:36.941Z,25.72
2023-07-02T22:12:33.578Z,25.94
2023-07-02T22:17:30.270Z,26.06
2023-07-02T22:22:28.269Z,25.83
2023-07-02T22:27:26.994Z,26.15
2023-07-02T22:32:24.128Z,26.13
2023-07-02T22:37:20.877Z,25.61
2023-07-02T22:42:18.392Z,25.56
2023-07-02T22:47:15.229Z,25.84
2023-07-02T22:52:11.985Z,25.86
2023-07-02T22:57:08.682Z,25.52
2023-07-02T23:02:06.244Z,25.31
2023-07-02T23:07:03.071Z,25.32
2023-07-02T23:11:59.861Z,25.56
2023-07-02T23:16:56.597Z,25.59
2023-07-02T23:21:54.204Z,25.28
2023-07-02T23:26:50.849Z,25.28
2023-07-02T23:31:47.782Z,25.11
2023-07-02T23:36:45.256Z,25.37
2023-07-02T23:41:42.752Z,25.21
2023-07-02T23:46:39.452Z,24.80
2023-07-02T23:51:36.361Z,24.54
2023-07-02T23:56:35.535Z,24.37
